Detalhes do Voo

Voltar

 DETALHES DO VÔO

Piloto: GLD1054 Carlos V. Aeronave: CARENADO C208_GRAND_CARAVAN_XP11_V1.0 BRAZIL Distância: 180NM
Origem: SBCT Destino: SBLO Duração: 1.01
Validação: Validado Tipo: Regular Matrícula: PR-GPH
ZFW: 2368 Block Fuel/Init FOB 210/0 Combustível em Voo 203
Passageiros: 8 Carga: 901 Alternativo: SBBU
Hora da Decolagem: Velocidade de Cruzeiro: N0179 Nível de Voo: FL100
Regra Visual: IFR ICAO da Aeronave: PC12 Unidade de Peso: Kg
Data: 12/07/2019 Observação: Rede: IVAO
Acidentou?: Não Comentários do Validador: Pontuação do Voo 99.75

 ROTA

ROTA PORK1B GEGOB UZ63 LON DCT
REMARKS OPR/GOLD VIRTUAL AIRLINES PER/A RMK/FROM SBKP /PIC GLD1054 /WWW.GOLDVIRTUAL.COM.BR

 PENALIDADES DO VOO

Para entender como cada item é pontuado, consulte as regras de avaliação.

Nenhuma penalidade registrada para este voo.

 ANÁLISE DO POUSO

Vento durante o pouso: 0º/0 kt Proa durante o pouso: 19
V/S do Pouso: -442.14 ft/min IAS do Pouso: 76.8 kt
Força G no pouso: 2.2 G Bank no pouso: -1.2
Pitch no Pouso -2.3 Flaps no Pouso 20
Nav Lights ON Landing Lights ON
Beacon Lights ON Strobe Lights ON

 MAPA DO VOO

 PERFIL VERTICAL DO VOO

 EVENTOS PRINCIPAIS DO VOO

DATAEVENTOIASALTITUDE
2019-07-12 03:37:41 SIM ACARS version 1.4.052980
2019-07-12 03:37:41 BOARDING52980
2019-07-12 03:37:41 FLAPS EXTENSION 0 % 52980
2019-07-12 03:37:41 STARTING ENGINE 1 52980
2019-07-12 03:37:53 TAXI TO THE RWY 92981
2019-07-12 03:44:09 ROLLING FOR TAKE OFF372990
2019-07-12 03:44:15 TAKE OFF712992
2019-07-12 03:52:01 CRUISE15310065
2019-07-12 04:24:11 DESCEND1729635
2019-07-12 04:27:42 CRUISE1708039
2019-07-12 04:28:21 DESCEND1677707
2019-07-12 04:31:43 CRUISE1344190
2019-07-12 04:38:11 DESCEND1324211
2019-07-12 04:39:11 CRUISE1354232
2019-07-12 04:39:42 DESCEND1543829
2019-07-12 04:40:11 OVERSPEED1803653
2019-07-12 04:41:56 RECOVER FROM OVERSPEED1802228
2019-07-12 04:44:31 CRUISE1382620
2019-07-12 04:45:33 FLAPS EXTENSION 33 % 1282412
2019-07-12 04:45:51 FLAPS EXTENSION 67 % 1202333
2019-07-12 04:45:51 DESCEND1202319
2019-07-12 04:46:19 LANDING771864
2019-07-12 04:46:23 FLAPS EXTENSION 33 % 691866
2019-07-12 04:46:23 FLAPS EXTENSION 0 % 681866
2019-07-12 04:46:45 TAXI TO THE GATE201866

 DADOS DO ACARS

DATA IAS GS ALTITUDE COMBUSTÍVEL USADO OAT FASE DO VOO
2019-07-12 03:38:41 23 24 2992 2 9 TAXI TO THE RWY
2019-07-12 03:39:41 0 0 2989 3 9 TAXI TO THE RWY
2019-07-12 03:40:41 0 0 2989 3 9 TAXI TO THE RWY
2019-07-12 03:41:41 0 0 2989 4 9 TAXI TO THE RWY
2019-07-12 03:42:41 2 3 2989 5 9 TAXI TO THE RWY
2019-07-12 03:43:41 1 2 2988 6 9 TAXI TO THE RWY
2019-07-12 03:44:41 131 137 3446 9 9 CLIMBING
2019-07-12 03:45:41 164 172 4114 13 8 CLIMBING
2019-07-12 03:46:41 162 169 4939 17 9 CLIMBING
2019-07-12 03:47:41 159 169 5774 21 7 CLIMBING
2019-07-12 03:48:41 153 163 6652 25 7 CLIMBING
2019-07-12 03:49:41 152 165 7425 29 6 CLIMBING
2019-07-12 03:50:41 129 141 8749 32 5 CLIMBING
2019-07-12 03:51:41 139 159 10092 36 4 CLIMBING
2019-07-12 03:52:41 158 180 10060 40 4 CRUISE
2019-07-12 03:53:41 159 181 10060 43 4 CRUISE
2019-07-12 03:54:41 159 181 10060 47 4 CRUISE
2019-07-12 03:55:41 159 181 10061 50 4 CRUISE
2019-07-12 03:56:41 159 181 10061 54 4 CRUISE
2019-07-12 03:57:41 159 185 10061 57 4 CRUISE
2019-07-12 03:58:41 159 186 10061 61 4 CRUISE
2019-07-12 03:59:41 159 186 10060 64 4 CRUISE
2019-07-12 04:00:41 159 186 10061 68 4 CRUISE
2019-07-12 04:01:41 159 186 10061 72 4 CRUISE
2019-07-12 04:02:41 159 186 10061 75 4 CRUISE
2019-07-12 04:03:41 159 186 10061 79 4 CRUISE
2019-07-12 04:04:41 159 186 10061 82 4 CRUISE
2019-07-12 04:05:41 159 186 10061 86 4 CRUISE
2019-07-12 04:06:41 159 186 10060 89 4 CRUISE
2019-07-12 04:07:41 159 186 10060 93 4 CRUISE
2019-07-12 04:08:41 159 186 10060 96 4 CRUISE
2019-07-12 04:09:41 159 186 10060 100 4 CRUISE
2019-07-12 04:10:41 159 186 10060 104 4 CRUISE
2019-07-12 04:11:41 159 186 10060 107 4 CRUISE
2019-07-12 04:12:41 159 186 10060 111 4 CRUISE
2019-07-12 04:13:41 159 186 10060 114 4 CRUISE
2019-07-12 04:14:41 159 186 10060 118 4 CRUISE
2019-07-12 04:15:41 159 186 10060 121 4 CRUISE
2019-07-12 04:16:41 161 189 9998 125 5 CRUISE
2019-07-12 04:17:41 160 187 9979 128 5 CRUISE
2019-07-12 04:18:41 159 187 9979 132 5 CRUISE
2019-07-12 04:19:41 159 187 9979 136 5 CRUISE
2019-07-12 04:20:41 159 187 9979 139 5 CRUISE
2019-07-12 04:21:41 159 187 9979 143 5 CRUISE
2019-07-12 04:22:41 159 187 9979 146 5 CRUISE
2019-07-12 04:23:41 159 187 9979 150 5 CRUISE
2019-07-12 04:24:41 171 198 9327 153 5 DESCEND
2019-07-12 04:25:41 171 196 8783 157 5 DESCEND
2019-07-12 04:26:41 171 194 8402 161 6 DESCEND
2019-07-12 04:27:41 170 192 8040 164 6 DESCEND
2019-07-12 04:28:41 161 180 7174 167 7 DESCEND
2019-07-12 04:29:41 170 184 5714 170 8 DESCEND
2019-07-12 04:30:41 163 172 4306 172 10 DESCEND
2019-07-12 04:31:41 134 142 4189 174 10 DESCEND
2019-07-12 04:32:41 132 140 4200 176 10 CRUISE
2019-07-12 04:33:41 131 139 4179 178 10 CRUISE
2019-07-12 04:34:41 132 141 4241 180 10 CRUISE
2019-07-12 04:35:41 130 139 4224 183 10 CRUISE
2019-07-12 04:36:41 130 139 4220 185 10 CRUISE
2019-07-12 04:37:41 132 140 4182 187 10 CRUISE
2019-07-12 04:38:41 132 141 4239 189 10 DESCEND
2019-07-12 04:39:41 150 161 3850 191 11 CRUISE
2019-07-12 04:40:41 200 209 2766 195 13 DESCEND
2019-07-12 04:41:41 191 198 2078 199 15 DESCEND
2019-07-12 04:42:41 140 146 2631 202 13 DESCEND
2019-07-12 04:43:41 135 141 2630 205 13 DESCEND
2019-07-12 04:44:41 148 154 2375 207 14 CRUISE
2019-07-12 04:45:41 112 116 2500 209 14 CRUISE
2019-07-12 04:46:41 30 30 1866 210 15 LANDED